createdAt,value
2022-10-13T00:00:35.206Z,5.28
2022-10-13T00:03:02.414Z,5.60
2022-10-13T00:05:29.398Z,6.13
2022-10-13T00:07:56.525Z,5.85
2022-10-13T00:10:23.940Z,6.10
2022-10-13T00:12:51.904Z,6.07
2022-10-13T00:15:21.865Z,6.07
2022-10-13T00:17:48.431Z,5.93
2022-10-13T00:20:15.094Z,5.43
2022-10-13T00:22:41.633Z,5.80
2022-10-13T00:25:08.995Z,5.80
2022-10-13T00:27:35.616Z,6.00
2022-10-13T00:30:04.460Z,6.25
2022-10-13T00:32:31.052Z,5.80
2022-10-13T00:34:57.687Z,5.63
2022-10-13T00:37:24.565Z,6.30
2022-10-13T00:39:51.122Z,5.80
2022-10-13T00:42:19.567Z,5.22
2022-10-13T00:45:19.635Z,5.32
2022-10-13T00:47:49.877Z,5.20
2022-10-13T00:50:19.505Z,6.03
2022-10-13T00:52:49.835Z,6.07
2022-10-13T00:55:22.160Z,5.97
2022-10-13T00:57:51.028Z,6.33
2022-10-13T01:00:18.934Z,5.28
2022-10-13T01:02:45.534Z,6.35
2022-10-13T01:05:12.083Z,6.38
2022-10-13T01:07:38.658Z,5.80
2022-10-13T01:10:06.079Z,6.10
2022-10-13T01:12:47.973Z,6.22
2022-10-13T01:15:22.353Z,6.85
2022-10-13T01:18:02.173Z,6.32
2022-10-13T01:20:50.509Z,6.80
2022-10-13T01:23:45.165Z,6.78
2022-10-13T01:26:34.499Z,6.10
2022-10-13T01:29:42.668Z,6.45
2022-10-13T01:32:14.637Z,6.40
2022-10-13T01:37:20.545Z,5.60
2022-10-13T01:39:54.938Z,6.57
2022-10-13T01:42:25.865Z,7.18
2022-10-13T01:45:00.420Z,5.88
2022-10-13T01:47:28.956Z,6.00
2022-10-13T01:49:56.662Z,7.32
2022-10-13T01:52:27.693Z,6.88
2022-10-13T01:54:54.744Z,6.70
2022-10-13T01:57:30.523Z,7.40
2022-10-13T01:59:59.731Z,8.00
2022-10-13T02:02:31.805Z,6.82
2022-10-13T02:05:08.432Z,7.40
2022-10-13T02:07:42.604Z,7.15
2022-10-13T02:10:17.561Z,6.93
2022-10-13T02:12:52.229Z,7.85
2022-10-13T02:15:24.312Z,7.93
2022-10-13T02:17:52.048Z,8.18
2022-10-13T02:20:20.325Z,7.22
2022-10-13T02:22:53.045Z,8.35
2022-10-13T02:25:19.622Z,8.07
2022-10-13T02:27:46.328Z,7.75
2022-10-13T02:30:23.226Z,7.60
2022-10-13T02:32:49.881Z,7.53
2022-10-13T02:35:16.805Z,7.63
2022-10-13T02:37:43.574Z,7.75
2022-10-13T02:40:11.157Z,8.00
2022-10-13T02:42:37.760Z,7.55
2022-10-13T02:45:04.968Z,6.75
2022-10-13T02:47:32.951Z,7.45
2022-10-13T02:50:02.400Z,8.05
2022-10-13T02:52:28.982Z,8.18
2022-10-13T02:54:55.496Z,8.27
2022-10-13T02:57:22.400Z,7.60
2022-10-13T02:59:49.488Z,8.50
2022-10-13T03:02:16.527Z,9.52
2022-10-13T03:04:44.507Z,10.00
2022-10-13T03:07:11.490Z,10.43
2022-10-13T03:09:38.240Z,9.13
2022-10-13T03:12:05.161Z,7.97
2022-10-13T03:14:31.767Z,8.85
2022-10-13T03:16:58.357Z,9.13
2022-10-13T03:19:24.890Z,7.18
2022-10-13T03:21:52.887Z,7.93
2022-10-13T03:24:19.470Z,7.20
2022-10-13T03:26:46.029Z,8.07
2022-10-13T03:29:15.434Z,8.07
2022-10-13T03:31:42.110Z,7.32
2022-10-13T03:34:08.824Z,7.60
2022-10-13T03:36:35.451Z,6.53
2022-10-13T03:39:03.490Z,7.32
2022-10-13T03:41:30.186Z,6.68
2022-10-13T03:43:56.806Z,7.13
2022-10-13T03:46:26.298Z,7.05
2022-10-13T03:48:53.237Z,7.20
2022-10-13T03:51:21.723Z,6.70
2022-10-13T03:53:49.568Z,7.65
2022-10-13T03:56:19.484Z,6.82
2022-10-13T03:58:52.588Z,6.75
2022-10-13T04:01:19.407Z,7.22
2022-10-13T04:03:46.436Z,7.40
2022-10-13T04:06:13.163Z,7.10
2022-10-13T04:08:39.782Z,6.53
2022-10-13T04:11:08.778Z,6.10
2022-10-13T04:13:40.234Z,7.13
2022-10-13T04:16:08.494Z,7.05
2022-10-13T04:18:35.412Z,6.35
2022-10-13T04:21:02.003Z,6.65
2022-10-13T04:23:28.510Z,6.57
2022-10-13T04:25:55.085Z,6.20
2022-10-13T04:28:21.671Z,7.80
2022-10-13T04:30:49.829Z,7.25
2022-10-13T04:33:16.398Z,7.65
2022-10-13T04:35:42.996Z,7.50
2022-10-13T04:38:09.571Z,8.02
2022-10-13T04:40:36.126Z,7.45
2022-10-13T04:43:03.063Z,7.15
2022-10-13T04:45:29.731Z,6.78
2022-10-13T04:47:57.611Z,7.28
2022-10-13T04:50:24.176Z,7.28
2022-10-13T04:52:59.013Z,7.55
2022-10-13T04:55:25.662Z,7.60
2022-10-13T04:57:52.162Z,7.15
2022-10-13T05:00:18.786Z,7.57
2022-10-13T05:02:45.833Z,6.80
2022-10-13T05:05:13.741Z,7.60
2022-10-13T05:07:40.242Z,7.32
2022-10-13T05:10:07.337Z,7.97
2022-10-13T05:12:34.034Z,8.68
2022-10-13T05:15:00.651Z,6.97
2022-10-13T05:17:34.865Z,7.28
2022-10-13T05:20:06.410Z,7.35
2022-10-13T05:22:34.357Z,8.07
2022-10-13T05:25:00.830Z,7.43
2022-10-13T05:27:27.393Z,7.22
2022-10-13T05:29:53.963Z,7.30
2022-10-13T05:32:20.925Z,7.63
2022-10-13T05:34:47.744Z,7.70
2022-10-13T05:37:14.310Z,7.45
2022-10-13T05:39:42.271Z,6.70
2022-10-13T05:42:08.821Z,7.88
2022-10-13T05:44:35.355Z,8.07
2022-10-13T05:47:07.223Z,7.18
2022-10-13T05:49:34.166Z,7.00
2022-10-13T05:52:06.067Z,7.13
2022-10-13T05:57:06.326Z,6.82
2022-10-13T05:59:35.511Z,6.55
2022-10-13T06:02:03.043Z,6.85
2022-10-13T06:04:34.740Z,6.85
2022-10-13T06:07:01.561Z,6.78
2022-10-13T06:09:33.371Z,6.45
2022-10-13T06:14:27.752Z,6.68
2022-10-13T06:16:54.298Z,7.95
2022-10-13T06:19:20.813Z,7.68
2022-10-13T06:21:47.409Z,6.97
2022-10-13T06:24:13.947Z,7.13
2022-10-13T06:26:40.538Z,6.18
2022-10-13T06:29:07.196Z,7.15
2022-10-13T06:31:35.578Z,7.07
2022-10-13T06:34:04.536Z,7.20
2022-10-13T06:36:31.137Z,7.68
2022-10-13T06:38:57.654Z,7.90
2022-10-13T06:41:24.275Z,8.45
2022-10-13T06:43:50.798Z,8.07
2022-10-13T06:46:17.434Z,8.63
2022-10-13T06:48:45.413Z,7.40
2022-10-13T06:51:12.250Z,7.85
2022-10-13T06:53:38.833Z,7.38
2022-10-13T06:56:07.766Z,6.88
2022-10-13T06:58:34.343Z,6.85
2022-10-13T07:01:01.055Z,7.22
2022-10-13T07:03:27.625Z,7.60
2022-10-13T07:06:00.254Z,7.18
2022-10-13T07:08:26.870Z,7.25
2022-10-13T07:10:53.492Z,7.50
2022-10-13T07:15:46.840Z,7.82
2022-10-13T07:18:13.483Z,7.32
2022-10-13T07:20:40.059Z,6.63
2022-10-13T07:23:08.076Z,6.85
2022-10-13T07:25:34.586Z,7.47
2022-10-13T07:28:01.189Z,7.10
2022-10-13T07:30:30.224Z,6.70
2022-10-13T07:32:56.837Z,7.30
2022-10-13T07:35:28.226Z,7.45
2022-10-13T07:37:57.478Z,8.27
2022-10-13T07:40:25.430Z,7.05
2022-10-13T07:42:51.997Z,6.57
2022-10-13T07:45:18.538Z,6.63
2022-10-13T07:47:45.177Z,6.82
2022-10-13T07:50:11.710Z,7.88
2022-10-13T07:52:38.295Z,6.63
2022-10-13T07:55:05.874Z,6.15
2022-10-13T07:57:33.913Z,7.18
2022-10-13T08:00:00.808Z,7.28
2022-10-13T08:02:27.418Z,8.65
2022-10-13T08:04:53.925Z,8.30
2022-10-13T08:07:20.882Z,7.55
2022-10-13T08:09:47.895Z,7.53
2022-10-13T08:12:14.553Z,8.30
2022-10-13T08:14:42.576Z,8.32
2022-10-13T08:17:09.811Z,7.47
2022-10-13T08:19:36.368Z,8.27
2022-10-13T08:22:05.526Z,7.78
2022-10-13T08:24:36.335Z,7.93
2022-10-13T08:27:03.446Z,7.75
2022-10-13T08:29:30.057Z,7.85
2022-10-13T08:31:57.974Z,7.25
2022-10-13T08:34:25.248Z,7.30
2022-10-13T08:36:52.101Z,7.32
2022-10-13T08:39:19.789Z,7.40
2022-10-13T08:41:46.584Z,7.28
2022-10-13T08:45:02.662Z,7.50
2022-10-13T08:47:18.063Z,8.23
2022-10-13T08:49:44.916Z,8.43
2022-10-13T08:52:16.615Z,7.68
2022-10-13T08:57:10.840Z,8.50
2022-10-13T08:59:37.578Z,9.50
2022-10-13T09:02:13.141Z,8.70
2022-10-13T09:04:44.026Z,7.63
2022-10-13T09:07:15.517Z,8.47
2022-10-13T09:09:42.628Z,9.52
2022-10-13T09:12:10.872Z,8.73
2022-10-13T09:14:39.454Z,9.68
2022-10-13T09:17:16.115Z,9.40
2022-10-13T09:19:42.869Z,9.07
2022-10-13T09:22:22.537Z,8.90
2022-10-13T09:25:07.748Z,8.77
2022-10-13T09:27:42.281Z,8.85
2022-10-13T09:30:25.987Z,8.88
2022-10-13T09:33:05.137Z,8.55
2022-10-13T09:35:31.776Z,9.45
2022-10-13T09:38:04.170Z,9.40
2022-10-13T09:40:31.290Z,9.88
2022-10-13T09:42:59.967Z,9.20
2022-10-13T09:45:27.480Z,8.93
2022-10-13T09:47:57.993Z,8.95
2022-10-13T09:50:27.017Z,9.15
2022-10-13T09:53:09.128Z,8.50
2022-10-13T09:55:36.618Z,9.77
2022-10-13T09:58:10.652Z,10.02
2022-10-13T10:00:39.491Z,9.23
2022-10-13T10:03:15.878Z,8.90
2022-10-13T10:05:49.277Z,10.20
2022-10-13T10:08:28.954Z,9.02
2022-10-13T10:11:03.197Z,8.93
2022-10-13T10:13:29.731Z,10.38
2022-10-13T10:16:02.536Z,8.50
2022-10-13T10:18:36.319Z,8.43
2022-10-13T10:21:08.485Z,9.45
2022-10-13T10:23:46.953Z,8.20
2022-10-13T10:26:23.178Z,9.68
2022-10-13T10:29:14.179Z,9.32
2022-10-13T10:31:53.904Z,8.90
2022-10-13T10:34:32.485Z,8.65
2022-10-13T10:37:13.682Z,8.48
2022-10-13T10:39:46.734Z,9.30
2022-10-13T10:42:33.533Z,8.25
2022-10-13T10:45:02.877Z,7.93
2022-10-13T10:47:36.759Z,8.30
2022-10-13T10:50:06.618Z,8.90
2022-10-13T10:52:45.672Z,8.30
2022-10-13T10:55:20.484Z,9.07
2022-10-13T10:57:57.820Z,7.68
2022-10-13T11:00:24.888Z,8.18
2022-10-13T11:03:00.651Z,8.25
2022-10-13T11:06:00.673Z,7.93
2022-10-13T11:08:29.512Z,8.07
2022-10-13T11:11:43.366Z,7.07
2022-10-13T11:14:30.562Z,7.55
2022-10-13T11:17:27.106Z,7.22
2022-10-13T11:19:53.989Z,8.07
2022-10-13T11:22:24.305Z,7.68
2022-10-13T11:25:04.136Z,7.57
2022-10-13T11:28:00.289Z,7.78
2022-10-13T11:30:42.403Z,7.32
2022-10-13T11:33:51.376Z,7.35
2022-10-13T11:36:51.782Z,7.38
2022-10-13T11:39:55.906Z,6.75
2022-10-13T11:42:38.786Z,7.53
2022-10-13T11:45:19.594Z,6.40
2022-10-13T11:48:04.075Z,7.37
2022-10-13T11:50:36.954Z,9.30
2022-10-13T11:53:14.564Z,7.18
2022-10-13T11:55:49.050Z,6.53
2022-10-13T11:58:18.062Z,7.75
2022-10-13T12:00:52.826Z,7.38
2022-10-13T12:03:26.288Z,8.07
2022-10-13T12:05:57.695Z,7.03
2022-10-13T12:08:27.589Z,6.50
2022-10-13T12:10:56.200Z,6.80
2022-10-13T12:13:25.518Z,6.75
2022-10-13T12:15:59.122Z,6.93
2022-10-13T12:18:27.897Z,7.82
2022-10-13T12:20:56.003Z,6.82
2022-10-13T12:23:23.190Z,6.38
2022-10-13T12:25:51.846Z,6.35
2022-10-13T12:28:20.012Z,6.97
2022-10-13T12:30:54.581Z,6.32
2022-10-13T12:33:26.620Z,7.40
2022-10-13T12:35:53.748Z,5.78
2022-10-13T12:38:22.001Z,6.07
2022-10-13T12:40:50.254Z,5.38
2022-10-13T12:43:22.626Z,4.85
2022-10-13T12:45:49.354Z,5.30
2022-10-13T12:48:29.939Z,4.63
2022-10-13T12:51:14.483Z,4.75
2022-10-13T12:53:44.468Z,5.32
2022-10-13T12:56:22.697Z,4.68
2022-10-13T12:58:50.770Z,4.57
2022-10-13T13:01:31.966Z,5.32
2022-10-13T13:04:01.429Z,3.75
2022-10-13T13:06:36.826Z,4.45
2022-10-13T13:09:23.139Z,4.45
2022-10-13T13:12:03.646Z,4.38
2022-10-13T13:14:38.889Z,4.32
2022-10-13T13:17:11.090Z,4.72
2022-10-13T13:19:38.364Z,4.47
2022-10-13T13:22:05.982Z,5.35
2022-10-13T13:24:40.151Z,4.25
2022-10-13T13:27:17.902Z,4.25
2022-10-13T13:29:46.511Z,4.10
2022-10-13T13:32:14.316Z,4.10
2022-10-13T13:34:41.180Z,4.25
2022-10-13T13:37:13.920Z,4.80
2022-10-13T13:39:40.888Z,4.30
2022-10-13T13:42:13.792Z,4.47
2022-10-13T13:44:43.118Z,4.60
2022-10-13T13:47:16.597Z,4.72
2022-10-13T13:49:46.234Z,4.20
2022-10-13T13:52:12.981Z,4.78
2022-10-13T13:54:39.597Z,4.03
2022-10-13T13:57:06.161Z,3.85
2022-10-13T13:59:33.011Z,4.30
2022-10-13T14:01:59.742Z,4.40
2022-10-13T14:04:30.178Z,4.53
2022-10-13T14:06:57.126Z,4.03
2022-10-13T14:09:23.657Z,3.95
2022-10-13T14:11:50.297Z,4.38
2022-10-13T14:14:16.821Z,4.00
2022-10-13T14:16:43.491Z,3.83
2022-10-13T14:19:10.000Z,3.83
2022-10-13T14:21:37.925Z,3.97
2022-10-13T14:24:10.590Z,4.40
2022-10-13T14:26:37.192Z,4.05
2022-10-13T14:29:03.927Z,3.78
2022-10-13T14:31:30.554Z,4.68
2022-10-13T14:33:57.080Z,4.05
2022-10-13T14:36:25.212Z,4.10
2022-10-13T14:38:53.142Z,4.28
2022-10-13T14:41:19.711Z,4.25
2022-10-13T14:43:52.222Z,4.55
2022-10-13T14:46:18.834Z,4.25
2022-10-13T14:48:45.359Z,5.22
2022-10-13T14:51:12.366Z,5.07
2022-10-13T14:53:40.621Z,4.82
2022-10-13T14:56:17.571Z,4.63
2022-10-13T14:58:50.582Z,4.97
2022-10-13T15:01:19.581Z,5.18
2022-10-13T15:03:46.462Z,4.38
2022-10-13T15:06:14.737Z,4.53
2022-10-13T15:08:42.118Z,5.15
2022-10-13T15:11:08.915Z,4.97
2022-10-13T15:13:37.512Z,4.90
2022-10-13T15:16:05.265Z,4.53
2022-10-13T15:18:32.800Z,4.43
2022-10-13T15:20:59.633Z,5.65
2022-10-13T15:23:26.504Z,5.72
2022-10-13T15:25:55.182Z,5.10
2022-10-13T15:28:22.631Z,5.50
2022-10-13T15:30:51.078Z,5.32
2022-10-13T15:33:21.342Z,6.18
2022-10-13T15:35:48.713Z,5.53
2022-10-13T15:38:15.329Z,5.45
2022-10-13T15:40:42.158Z,5.38
2022-10-13T15:43:08.764Z,5.80
2022-10-13T15:45:35.663Z,5.75
2022-10-13T15:48:06.448Z,5.70
2022-10-13T15:50:33.114Z,6.65
2022-10-13T15:52:59.692Z,6.65
2022-10-13T15:55:26.289Z,5.90
2022-10-13T15:57:52.803Z,6.97
2022-10-13T16:00:19.477Z,6.68
2022-10-13T16:02:49.744Z,6.93
2022-10-13T16:05:18.908Z,7.45
2022-10-13T16:07:45.491Z,7.47
2022-10-13T16:10:14.649Z,7.20
2022-10-13T16:12:46.840Z,7.10
2022-10-13T16:15:17.096Z,7.65
2022-10-13T16:17:43.698Z,7.50
2022-10-13T16:20:11.311Z,7.63
2022-10-13T16:22:39.252Z,7.00
2022-10-13T16:25:07.401Z,7.55
2022-10-13T16:27:33.883Z,7.10
2022-10-13T16:30:00.412Z,7.82
2022-10-13T16:32:26.918Z,7.47
2022-10-13T16:34:53.715Z,7.30
2022-10-13T16:37:20.620Z,7.30
2022-10-13T16:39:51.732Z,8.27
2022-10-13T16:42:18.572Z,7.90
2022-10-13T16:44:45.064Z,7.72
2022-10-13T16:47:17.340Z,7.75
2022-10-13T16:49:44.924Z,7.93
2022-10-13T16:52:12.194Z,7.20
2022-10-13T16:54:38.709Z,8.98
2022-10-13T16:57:06.556Z,7.40
2022-10-13T16:59:33.153Z,7.68
2022-10-13T17:01:59.666Z,7.80
2022-10-13T17:04:26.218Z,7.50
2022-10-13T17:06:52.804Z,7.57
2022-10-13T17:09:19.348Z,7.35
2022-10-13T17:11:45.857Z,7.50
2022-10-13T17:14:13.767Z,8.07
2022-10-13T17:16:40.345Z,7.35
2022-10-13T17:19:06.893Z,8.25
2022-10-13T17:21:35.888Z,7.40
2022-10-13T17:24:04.787Z,7.15
2022-10-13T17:26:32.964Z,7.22
2022-10-13T17:28:59.826Z,7.68
2022-10-13T17:31:27.848Z,8.20
2022-10-13T17:33:54.405Z,7.38
2022-10-13T17:36:22.765Z,8.43
2022-10-13T17:38:50.254Z,7.68
2022-10-13T17:41:17.684Z,7.38
2022-10-13T17:43:49.549Z,7.85
2022-10-13T17:46:36.324Z,7.35
2022-10-13T17:49:06.139Z,7.45
2022-10-13T17:51:32.626Z,7.70
2022-10-13T17:53:59.866Z,6.90
2022-10-13T17:56:26.964Z,7.22
2022-10-13T17:58:53.880Z,8.05
2022-10-13T18:01:22.300Z,7.70
2022-10-13T18:03:53.361Z,7.55
2022-10-13T18:06:31.470Z,8.05
2022-10-13T18:09:04.427Z,6.95
2022-10-13T18:11:31.452Z,7.05
2022-10-13T18:13:58.546Z,6.80
2022-10-13T18:16:25.143Z,6.53
2022-10-13T18:18:53.818Z,7.82
2022-10-13T18:21:22.212Z,6.97
2022-10-13T18:23:53.498Z,7.47
2022-10-13T18:26:20.496Z,7.47
2022-10-13T18:28:48.475Z,7.75
2022-10-13T18:31:20.259Z,7.30
2022-10-13T18:36:19.108Z,7.85
2022-10-13T18:38:46.400Z,7.28
2022-10-13T18:41:15.024Z,7.97
2022-10-13T18:43:41.646Z,7.85
2022-10-13T18:46:08.770Z,7.40
2022-10-13T18:48:35.660Z,8.13
2022-10-13T18:51:03.172Z,8.00
2022-10-13T18:53:29.769Z,7.05
2022-10-13T18:56:01.170Z,7.00
2022-10-13T18:58:29.569Z,6.97
2022-10-13T19:00:58.945Z,8.60
2022-10-13T19:03:25.646Z,7.25
2022-10-13T19:05:52.163Z,7.78
2022-10-13T19:08:18.677Z,8.30
2022-10-13T19:10:45.224Z,8.05
2022-10-13T19:13:11.819Z,7.80
2022-10-13T19:15:39.687Z,7.55
2022-10-13T19:18:06.466Z,8.93
2022-10-13T19:20:33.020Z,7.40
2022-10-13T19:23:04.198Z,8.23
2022-10-13T19:25:30.755Z,7.00
2022-10-13T19:27:57.595Z,7.90
2022-10-13T19:30:25.520Z,7.43
2022-10-13T19:32:54.546Z,7.30
2022-10-13T19:35:21.156Z,7.88
2022-10-13T19:37:47.661Z,8.85
2022-10-13T19:40:14.387Z,8.45
2022-10-13T19:42:40.900Z,7.45
2022-10-13T19:45:08.312Z,7.80
2022-10-13T19:47:34.801Z,7.50
2022-10-13T19:50:03.009Z,7.05
2022-10-13T19:52:29.535Z,6.32
2022-10-13T19:54:56.762Z,6.75
2022-10-13T19:57:23.645Z,7.22
2022-10-13T19:59:51.819Z,6.10
2022-10-13T20:02:18.322Z,6.50
2022-10-13T20:04:45.047Z,5.43
2022-10-13T20:07:12.907Z,5.38
2022-10-13T20:09:39.390Z,4.13
2022-10-13T20:12:06.134Z,4.35
2022-10-13T20:14:34.269Z,4.03
2022-10-13T20:17:00.848Z,4.60
2022-10-13T20:19:27.438Z,4.55
2022-10-13T20:21:53.930Z,4.70
2022-10-13T20:24:22.271Z,4.80
2022-10-13T20:26:49.276Z,4.20
2022-10-13T20:29:20.806Z,4.45
2022-10-13T20:31:47.331Z,3.88
2022-10-13T20:34:13.858Z,3.60
2022-10-13T20:36:40.496Z,3.25
2022-10-13T20:39:07.289Z,2.83
2022-10-13T20:41:35.358Z,2.85
2022-10-13T20:44:02.182Z,3.00
2022-10-13T20:46:31.624Z,3.10
2022-10-13T20:49:10.456Z,3.15
2022-10-13T20:51:38.510Z,2.92
2022-10-13T20:54:05.100Z,2.70
2022-10-13T20:56:31.720Z,3.03
2022-10-13T20:59:04.295Z,2.67
2022-10-13T21:01:30.987Z,3.13
2022-10-13T21:03:57.470Z,3.95
2022-10-13T21:06:25.467Z,2.80
2022-10-13T21:08:52.442Z,2.78
2022-10-13T21:11:21.032Z,2.78
2022-10-13T21:13:47.983Z,2.97
2022-10-13T21:16:19.478Z,2.90
2022-10-13T21:18:47.729Z,2.72
2022-10-13T21:21:16.420Z,2.58
2022-10-13T21:23:43.680Z,2.80
2022-10-13T21:26:11.896Z,3.63
2022-10-13T21:28:38.972Z,3.22
2022-10-13T21:31:07.439Z,3.05
2022-10-13T21:33:38.180Z,3.00
2022-10-13T21:36:05.949Z,3.63
2022-10-13T21:38:32.529Z,3.30
2022-10-13T21:40:59.085Z,3.33
2022-10-13T21:43:25.620Z,3.28
2022-10-13T21:45:52.159Z,3.05
2022-10-13T21:48:18.879Z,3.00
2022-10-13T21:50:46.846Z,2.80
2022-10-13T21:53:13.394Z,3.40
2022-10-13T21:55:39.974Z,3.13
2022-10-13T21:58:06.469Z,3.72
2022-10-13T22:00:33.437Z,3.55
2022-10-13T22:02:59.976Z,3.20
2022-10-13T22:05:26.553Z,2.95
2022-10-13T22:07:58.186Z,3.40
2022-10-13T22:10:24.756Z,3.40
2022-10-13T22:12:51.254Z,3.40
2022-10-13T22:15:17.821Z,2.88
2022-10-13T22:17:44.353Z,3.13
2022-10-13T22:20:10.905Z,3.55
2022-10-13T22:22:37.409Z,3.03
2022-10-13T22:25:06.920Z,3.38
2022-10-13T22:27:34.901Z,3.30
2022-10-13T22:30:01.542Z,2.80
2022-10-13T22:32:28.085Z,3.17
2022-10-13T22:34:54.686Z,3.05
2022-10-13T22:37:21.488Z,3.50
2022-10-13T22:39:48.216Z,3.22
2022-10-13T22:42:16.087Z,3.13
2022-10-13T22:44:42.597Z,3.30
2022-10-13T22:47:09.322Z,3.17
2022-10-13T22:49:35.878Z,3.03
2022-10-13T22:52:03.076Z,3.33
2022-10-13T22:54:29.868Z,3.47
2022-10-13T22:56:56.406Z,3.08
2022-10-13T22:59:24.338Z,3.08
2022-10-13T23:01:50.954Z,3.00
2022-10-13T23:04:17.539Z,3.30
2022-10-13T23:06:44.030Z,3.30
2022-10-13T23:09:12.658Z,3.22
2022-10-13T23:11:39.722Z,2.95
2022-10-13T23:14:07.951Z,3.20
2022-10-13T23:16:35.894Z,2.83
2022-10-13T23:19:02.574Z,2.90
2022-10-13T23:21:30.124Z,3.55
2022-10-13T23:23:57.731Z,3.88
2022-10-13T23:26:24.612Z,3.42
2022-10-13T23:28:52.407Z,3.08
2022-10-13T23:31:18.936Z,3.28
2022-10-13T23:33:46.861Z,3.35
2022-10-13T23:36:15.775Z,3.53
2022-10-13T23:38:44.097Z,3.65
2022-10-13T23:41:13.141Z,4.15
2022-10-13T23:43:40.492Z,3.17
2022-10-13T23:46:07.991Z,3.47
2022-10-13T23:48:34.546Z,3.38
2022-10-13T23:51:07.578Z,3.42
2022-10-13T23:53:35.567Z,3.60
2022-10-13T23:56:02.347Z,2.90
2022-10-13T23:58:29.500Z,3.42
